createdAt,value
2017-06-09T00:00:45.543Z,7.90
2017-06-09T00:03:13.831Z,9.73
2017-06-09T00:05:42.454Z,7.10
2017-06-09T00:08:10.761Z,10.33
2017-06-09T00:10:39.197Z,5.20
2017-06-09T00:13:07.585Z,5.73
2017-06-09T00:15:35.906Z,9.53
2017-06-09T00:18:05.277Z,9.00
2017-06-09T00:20:34.037Z,6.73
2017-06-09T00:23:02.329Z,8.73
2017-06-09T00:25:30.711Z,13.03
2017-06-09T00:27:59.211Z,6.00
2017-06-09T00:30:29.113Z,7.40
2017-06-09T00:32:57.587Z,5.50
2017-06-09T00:35:25.885Z,9.23
2017-06-09T00:37:54.184Z,6.67
2017-06-09T00:40:23.055Z,5.93
2017-06-09T00:42:51.325Z,6.53
2017-06-09T00:45:19.631Z,6.90
2017-06-09T00:47:48.770Z,8.50
2017-06-09T00:50:17.368Z,8.23
2017-06-09T00:52:46.069Z,6.00
2017-06-09T00:55:14.352Z,7.30
2017-06-09T00:57:42.694Z,6.60
2017-06-09T01:00:10.980Z,6.73
2017-06-09T01:02:39.788Z,8.10
2017-06-09T01:05:08.138Z,7.70
2017-06-09T01:07:36.412Z,7.33
2017-06-09T01:10:04.824Z,11.30
2017-06-09T01:12:33.920Z,9.43
2017-06-09T01:15:02.595Z,8.30
2017-06-09T01:17:31.052Z,8.90
2017-06-09T01:19:59.353Z,7.60
2017-06-09T01:22:27.671Z,5.03
2017-06-09T01:24:55.981Z,6.23
2017-06-09T01:27:24.593Z,9.33
2017-06-09T01:29:53.009Z,4.47
2017-06-09T01:32:21.272Z,4.50
2017-06-09T01:34:50.340Z,9.20
2017-06-09T01:37:18.738Z,6.90
2017-06-09T01:39:47.248Z,5.20
2017-06-09T01:42:15.541Z,6.67
2017-06-09T01:44:44.360Z,4.03
2017-06-09T01:47:12.929Z,4.27
2017-06-09T01:49:41.284Z,9.10
2017-06-09T01:52:09.825Z,4.80
2017-06-09T01:54:38.109Z,4.73
2017-06-09T01:57:06.384Z,6.73
2017-06-09T01:59:35.290Z,8.87
2017-06-09T02:02:03.755Z,5.30
2017-06-09T02:04:32.276Z,6.07
2017-06-09T02:07:00.565Z,8.73
2017-06-09T02:09:29.710Z,8.10
2017-06-09T02:11:58.081Z,8.67
2017-06-09T02:14:26.497Z,7.47
2017-06-09T02:16:55.000Z,5.57
2017-06-09T02:19:23.954Z,8.70
2017-06-09T02:21:52.323Z,7.03
2017-06-09T02:24:20.712Z,7.60
2017-06-09T02:26:49.012Z,7.40
2017-06-09T02:29:17.661Z,6.37
2017-06-09T02:31:45.950Z,7.03
2017-06-09T02:34:14.295Z,6.43
2017-06-09T02:36:43.205Z,6.50
2017-06-09T02:39:11.527Z,6.93
2017-06-09T02:41:40.894Z,5.00
2017-06-09T02:44:09.674Z,8.23
2017-06-09T02:46:38.777Z,7.77
2017-06-09T02:49:07.080Z,4.97
2017-06-09T02:51:36.144Z,6.10
2017-06-09T02:54:04.677Z,7.03
2017-06-09T02:56:32.958Z,5.70
2017-06-09T02:59:01.965Z,5.43
2017-06-09T03:01:30.293Z,6.53
2017-06-09T03:03:58.669Z,6.43
2017-06-09T03:06:27.343Z,6.73
2017-06-09T03:08:55.652Z,6.03
2017-06-09T03:11:24.429Z,5.93
2017-06-09T03:13:53.208Z,12.63
2017-06-09T03:16:21.493Z,7.13
2017-06-09T03:18:49.997Z,9.73
2017-06-09T03:21:18.463Z,10.77
2017-06-09T03:23:46.782Z,19.67
2017-06-09T03:26:15.092Z,20.87
2017-06-09T03:28:43.384Z,18.73
2017-06-09T03:31:11.945Z,23.90
2017-06-09T03:33:40.448Z,22.33
2017-06-09T03:36:08.740Z,24.50
2017-06-09T03:38:37.201Z,24.03
2017-06-09T03:41:05.493Z,18.27
2017-06-09T03:43:34.177Z,19.43
2017-06-09T03:46:02.702Z,13.50
2017-06-09T03:48:31.128Z,18.57
2017-06-09T03:50:59.511Z,14.90
2017-06-09T03:53:27.800Z,14.63
2017-06-09T03:55:57.173Z,10.93
2017-06-09T03:58:25.495Z,9.00
2017-06-09T04:00:53.781Z,11.70
2017-06-09T04:03:22.091Z,13.00
2017-06-09T04:05:50.402Z,8.33
2017-06-09T04:08:19.598Z,12.37
2017-06-09T04:10:48.622Z,8.13
2017-06-09T04:13:17.660Z,9.47
2017-06-09T04:15:46.072Z,8.73
2017-06-09T04:18:15.172Z,8.77
2017-06-09T04:20:43.711Z,7.90
2017-06-09T04:23:12.077Z,12.90
2017-06-09T04:25:40.485Z,7.70
2017-06-09T04:28:08.888Z,11.13
2017-06-09T04:30:37.569Z,11.53
2017-06-09T04:33:06.111Z,7.87
2017-06-09T04:35:34.346Z,10.77
2017-06-09T04:38:02.691Z,9.80
2017-06-09T04:40:31.005Z,8.17
2017-06-09T04:43:00.074Z,9.33
2017-06-09T04:45:28.662Z,7.07
2017-06-09T04:47:57.163Z,4.37
2017-06-09T04:50:26.151Z,7.17
2017-06-09T04:52:54.436Z,5.20
2017-06-09T04:55:22.760Z,5.47
2017-06-09T04:57:51.292Z,6.53
2017-06-09T05:00:19.585Z,7.33
2017-06-09T05:02:47.872Z,5.10
2017-06-09T05:05:16.302Z,10.00
2017-06-09T05:07:45.144Z,6.60
2017-06-09T05:10:13.696Z,6.70
2017-06-09T05:12:41.972Z,7.00
2017-06-09T05:15:10.382Z,5.73
2017-06-09T05:17:38.911Z,5.33
2017-06-09T05:20:07.236Z,6.60
2017-06-09T05:22:36.343Z,5.70
2017-06-09T05:25:04.678Z,8.90
2017-06-09T05:27:33.057Z,9.90
2017-06-09T05:30:01.349Z,7.00
2017-06-09T05:32:29.867Z,5.47
2017-06-09T05:34:58.161Z,6.97
2017-06-09T05:37:26.933Z,8.67
2017-06-09T05:39:55.300Z,7.17
2017-06-09T05:42:23.733Z,7.40
2017-06-09T05:44:52.269Z,9.87
2017-06-09T05:47:20.603Z,11.60
2017-06-09T05:49:48.987Z,6.97
2017-06-09T05:52:17.276Z,6.70
2017-06-09T05:54:45.745Z,5.70
2017-06-09T05:57:14.414Z,7.70
2017-06-09T05:59:42.928Z,6.20
2017-06-09T06:02:11.266Z,10.33
2017-06-09T06:04:40.261Z,4.90
2017-06-09T06:07:08.646Z,7.43
2017-06-09T06:09:37.257Z,6.70
2017-06-09T06:12:06.379Z,6.83
2017-06-09T06:14:35.207Z,12.00
2017-06-09T06:17:03.752Z,7.57
2017-06-09T06:19:32.045Z,6.50
2017-06-09T06:22:00.683Z,6.93
2017-06-09T06:24:29.153Z,7.13
2017-06-09T06:26:57.453Z,5.07
2017-06-09T06:29:25.760Z,6.10
2017-06-09T06:31:54.184Z,5.90
2017-06-09T06:34:23.056Z,5.60
2017-06-09T06:36:51.426Z,9.03
2017-06-09T06:39:19.746Z,5.83
2017-06-09T06:41:48.134Z,8.77
2017-06-09T06:44:16.411Z,6.13
2017-06-09T06:46:45.933Z,6.40
2017-06-09T06:49:14.198Z,7.83
2017-06-09T06:51:42.501Z,11.33
2017-06-09T06:54:11.270Z,4.57
2017-06-09T06:56:40.316Z,4.43
2017-06-09T06:59:08.943Z,4.00
2017-06-09T07:01:37.544Z,5.97
2017-06-09T07:04:05.904Z,4.40
2017-06-09T07:06:34.255Z,6.80
2017-06-09T07:09:02.546Z,6.80
2017-06-09T07:11:31.134Z,4.30
2017-06-09T07:14:01.065Z,8.97
2017-06-09T07:16:30.149Z,8.07
2017-06-09T07:18:58.456Z,4.23
2017-06-09T07:21:26.921Z,7.23
2017-06-09T07:23:55.602Z,7.83
2017-06-09T07:26:23.936Z,4.17
2017-06-09T07:28:52.218Z,7.10
2017-06-09T07:31:20.636Z,5.57
2017-06-09T07:33:48.930Z,8.63
2017-06-09T07:36:17.682Z,6.67
2017-06-09T07:38:46.071Z,10.73
2017-06-09T07:41:14.390Z,8.37
2017-06-09T07:43:42.867Z,10.00
2017-06-09T07:46:11.194Z,10.45
2017-06-09T07:48:39.790Z,7.03
2017-06-09T07:51:08.152Z,9.80
2017-06-09T07:53:36.428Z,9.60
2017-06-09T07:56:04.798Z,4.13
2017-06-09T07:58:33.075Z,7.70
2017-06-09T08:01:01.794Z,5.73
2017-06-09T08:03:30.114Z,5.13
2017-06-09T08:05:58.578Z,5.30
2017-06-09T08:08:26.884Z,5.80
2017-06-09T08:10:55.181Z,8.97
2017-06-09T08:13:23.810Z,6.33
2017-06-09T08:15:52.283Z,8.00
2017-06-09T08:18:20.606Z,2.87
2017-06-09T08:20:49.477Z,7.53
2017-06-09T08:23:17.819Z,5.20
2017-06-09T08:25:47.152Z,5.20
2017-06-09T08:28:16.314Z,7.00
2017-06-09T08:30:44.665Z,6.33
2017-06-09T08:33:12.974Z,4.93
2017-06-09T08:35:41.274Z,3.23
2017-06-09T08:38:10.688Z,4.83
2017-06-09T08:40:39.131Z,6.33
2017-06-09T08:43:08.653Z,10.20
2017-06-09T08:45:37.005Z,6.17
2017-06-09T08:48:05.304Z,5.73
2017-06-09T08:50:33.911Z,9.53
2017-06-09T08:53:02.256Z,5.87
2017-06-09T08:55:30.558Z,4.30
2017-06-09T08:57:58.896Z,4.67
2017-06-09T09:00:27.440Z,8.03
2017-06-09T09:02:55.732Z,7.90
2017-06-09T09:05:24.037Z,7.87
2017-06-09T09:07:52.375Z,4.60
2017-06-09T09:10:21.792Z,10.33
2017-06-09T09:12:50.569Z,5.13
2017-06-09T09:15:18.967Z,3.90
2017-06-09T09:17:47.277Z,5.90
2017-06-09T09:20:15.646Z,4.10
2017-06-09T09:22:44.405Z,5.53
2017-06-09T09:25:12.753Z,9.50
2017-06-09T09:27:41.172Z,3.27
2017-06-09T09:30:10.055Z,3.90
2017-06-09T09:32:38.371Z,2.90
2017-06-09T09:35:07.110Z,3.47
2017-06-09T09:37:35.461Z,6.53
2017-06-09T09:40:03.772Z,7.63
2017-06-09T09:42:32.076Z,4.17
2017-06-09T09:45:00.364Z,4.67
2017-06-09T09:47:29.133Z,5.40
2017-06-09T09:49:55.307Z,2.60
2017-06-09T09:52:21.420Z,3.00
2017-06-09T09:54:48.385Z,3.30
2017-06-09T09:57:14.604Z,4.30
2017-06-09T09:59:41.020Z,4.50
2017-06-09T10:02:07.992Z,2.70
2017-06-09T10:04:34.149Z,4.00
2017-06-09T10:07:00.314Z,3.10
2017-06-09T10:09:26.630Z,2.03
2017-06-09T10:11:53.116Z,2.70
2017-06-09T10:14:19.265Z,4.40
2017-06-09T10:16:45.438Z,5.73
2017-06-09T10:19:11.769Z,4.70
2017-06-09T10:21:37.921Z,2.53
2017-06-09T10:24:04.102Z,5.80
2017-06-09T10:26:30.602Z,2.77
2017-06-09T10:28:56.795Z,3.30
2017-06-09T10:31:24.106Z,3.63
2017-06-09T10:33:51.851Z,4.23
2017-06-09T10:36:18.016Z,3.60
2017-06-09T10:38:44.979Z,8.00
2017-06-09T10:41:13.225Z,2.17
2017-06-09T10:43:39.393Z,2.60
2017-06-09T10:46:06.323Z,2.17
2017-06-09T10:48:32.519Z,3.10
2017-06-09T10:50:58.729Z,4.03
2017-06-09T10:53:25.210Z,2.83
2017-06-09T10:55:51.391Z,2.40
2017-06-09T10:58:17.597Z,4.33
2017-06-09T11:00:43.755Z,2.80
2017-06-09T11:03:25.108Z,4.05
2017-06-09T11:05:51.757Z,4.57
2017-06-09T11:08:17.989Z,3.10
2017-06-09T11:10:44.160Z,3.78
2017-06-09T11:13:10.793Z,9.10
2017-06-09T11:15:37.072Z,3.43
2017-06-09T11:18:03.307Z,2.70
2017-06-09T11:20:29.476Z,5.87
2017-06-09T11:22:55.752Z,2.80
2017-06-09T11:25:22.405Z,4.23
2017-06-09T11:28:03.606Z,6.73
2017-06-09T11:30:30.771Z,4.37
2017-06-09T11:32:57.017Z,3.30
2017-06-09T11:35:23.250Z,2.13
2017-06-09T11:37:49.743Z,6.13
2017-06-09T11:40:16.101Z,2.17
2017-06-09T11:42:42.348Z,4.30
2017-06-09T11:45:08.799Z,3.10
2017-06-09T11:47:35.138Z,6.50
2017-06-09T11:50:01.344Z,1.97
2017-06-09T11:52:28.944Z,2.93
2017-06-09T11:54:55.164Z,2.00
2017-06-09T11:57:21.704Z,5.03
2017-06-09T11:59:48.007Z,2.37
2017-06-09T12:02:14.263Z,1.30
2017-06-09T12:04:40.456Z,2.47
2017-06-09T12:07:07.873Z,3.17
2017-06-09T12:09:34.529Z,6.50
2017-06-09T12:12:01.054Z,2.50
2017-06-09T12:14:27.335Z,1.60
2017-06-09T12:16:53.563Z,4.40
2017-06-09T12:19:19.774Z,2.07
2017-06-09T12:21:46.319Z,3.60
2017-06-09T12:24:12.546Z,6.37
2017-06-09T12:26:38.850Z,2.70
2017-06-09T12:29:05.053Z,4.37
2017-06-09T12:31:31.297Z,2.33
2017-06-09T12:33:57.854Z,2.63
2017-06-09T12:36:39.024Z,2.60
2017-06-09T12:39:05.604Z,3.90
2017-06-09T12:41:31.840Z,2.20
2017-06-09T12:43:57.993Z,3.10
2017-06-09T12:46:24.202Z,2.03
2017-06-09T12:48:50.430Z,3.00
2017-06-09T12:51:16.915Z,2.60
2017-06-09T12:53:43.968Z,1.67
2017-06-09T12:56:10.349Z,3.43
2017-06-09T12:58:36.679Z,3.00
2017-06-09T13:01:02.964Z,3.00
2017-06-09T13:03:29.518Z,2.70
2017-06-09T13:05:55.838Z,2.10
2017-06-09T13:08:22.594Z,2.43
2017-06-09T13:10:48.837Z,4.10
2017-06-09T13:13:15.079Z,2.33
2017-06-09T13:15:41.801Z,1.60
2017-06-09T13:18:08.075Z,1.63
2017-06-09T13:20:34.381Z,3.13
2017-06-09T13:23:15.618Z,2.93
2017-06-09T13:25:41.806Z,4.80
2017-06-09T13:28:08.491Z,4.60
2017-06-09T13:30:34.691Z,2.27
2017-06-09T13:33:00.894Z,2.50
2017-06-09T13:35:27.306Z,2.57
2017-06-09T13:37:53.645Z,2.50
2017-06-09T13:40:21.541Z,1.63
2017-06-09T13:42:47.742Z,5.30
2017-06-09T13:45:13.900Z,3.55
2017-06-09T13:47:40.097Z,2.22
2017-06-09T13:50:06.510Z,3.23
2017-06-09T13:52:34.165Z,3.10
2017-06-09T13:55:01.110Z,1.80
2017-06-09T13:57:27.483Z,3.57
2017-06-09T13:59:53.668Z,2.33
2017-06-09T14:02:20.820Z,5.10
2017-06-09T14:04:47.296Z,2.30
2017-06-09T14:07:13.553Z,3.00
2017-06-09T14:09:39.776Z,1.53
2017-06-09T14:12:06.101Z,1.63
2017-06-09T14:14:32.310Z,3.10
2017-06-09T14:16:58.735Z,2.87
2017-06-09T14:19:25.028Z,2.67
2017-06-09T14:21:51.157Z,2.60
2017-06-09T14:24:17.364Z,4.70
2017-06-09T14:26:44.251Z,2.73
2017-06-09T14:29:10.766Z,1.97
2017-06-09T14:31:37.037Z,4.23
2017-06-09T14:34:03.259Z,2.70
2017-06-09T14:36:29.764Z,3.43
2017-06-09T14:38:55.913Z,2.20
2017-06-09T14:41:22.382Z,2.00
2017-06-09T14:43:48.865Z,5.63
2017-06-09T14:46:15.042Z,3.50
2017-06-09T14:48:41.984Z,6.83
2017-06-09T14:51:08.847Z,2.67
2017-06-09T14:53:35.004Z,9.63
2017-06-09T14:56:01.195Z,3.00
2017-06-09T14:58:28.629Z,4.63
2017-06-09T15:00:55.854Z,1.90
2017-06-09T15:03:22.105Z,2.83
2017-06-09T15:05:49.334Z,3.23
2017-06-09T15:08:16.087Z,4.50
2017-06-09T15:10:42.331Z,2.60
2017-06-09T15:13:08.772Z,2.00
2017-06-09T15:15:35.085Z,1.70
2017-06-09T15:18:01.457Z,8.30
2017-06-09T15:20:27.964Z,1.70
2017-06-09T15:22:54.929Z,5.57
2017-06-09T15:25:21.235Z,1.83
2017-06-09T15:27:47.774Z,1.80
2017-06-09T15:30:13.970Z,2.37
2017-06-09T15:32:40.097Z,4.07
2017-06-09T15:35:06.542Z,2.70
2017-06-09T15:37:32.697Z,15.53
2017-06-09T15:39:58.838Z,2.27
2017-06-09T15:42:25.366Z,2.83
2017-06-09T15:44:51.552Z,4.73
2017-06-09T15:47:17.864Z,3.47
2017-06-09T15:49:44.229Z,4.30
2017-06-09T15:52:10.376Z,2.23
2017-06-09T15:54:36.574Z,4.60
2017-06-09T15:57:03.078Z,3.50
2017-06-09T15:59:29.249Z,3.70
2017-06-09T16:01:55.467Z,1.60
2017-06-09T16:04:21.941Z,3.07
2017-06-09T16:06:48.080Z,1.77
2017-06-09T16:09:14.362Z,3.73
2017-06-09T16:11:41.068Z,3.50
2017-06-09T16:14:07.361Z,3.13
2017-06-09T16:16:34.265Z,2.63
2017-06-09T16:19:00.680Z,4.20
2017-06-09T16:21:26.916Z,4.33
2017-06-09T16:23:53.102Z,2.03
2017-06-09T16:26:19.526Z,2.43
2017-06-09T16:28:45.762Z,2.03
2017-06-09T16:31:12.053Z,1.60
2017-06-09T16:33:38.614Z,2.33
2017-06-09T16:36:04.802Z,1.60
2017-06-09T16:38:30.927Z,3.93
2017-06-09T16:40:57.147Z,3.27
2017-06-09T16:43:23.271Z,3.97
2017-06-09T16:45:49.727Z,2.67
2017-06-09T16:48:15.898Z,2.93
2017-06-09T16:50:42.101Z,4.87
2017-06-09T16:53:09.104Z,2.00
2017-06-09T16:55:35.340Z,5.87
2017-06-09T16:58:01.810Z,2.03
2017-06-09T17:00:27.973Z,3.30
2017-06-09T17:02:54.130Z,2.63
2017-06-09T17:05:20.256Z,3.53
2017-06-09T17:07:46.435Z,2.03
2017-06-09T17:10:12.656Z,4.57
2017-06-09T17:12:39.147Z,2.90
2017-06-09T17:15:05.394Z,4.60
2017-06-09T17:17:31.628Z,5.20
2017-06-09T17:19:58.089Z,4.53
2017-06-09T17:22:24.285Z,3.93
2017-06-09T17:24:51.239Z,10.23
2017-06-09T17:27:17.444Z,4.50
2017-06-09T17:29:58.646Z,6.53
2017-06-09T17:32:24.962Z,15.57
2017-06-09T17:34:51.809Z,9.50
2017-06-09T17:37:18.022Z,16.40
2017-06-09T17:39:44.573Z,13.93
2017-06-09T17:42:10.774Z,11.73
2017-06-09T17:44:36.982Z,11.80
2017-06-09T17:47:04.125Z,18.90
2017-06-09T17:49:30.334Z,7.87
2017-06-09T17:51:56.501Z,8.57
2017-06-09T17:54:23.461Z,6.43
2017-06-09T17:56:49.617Z,4.90
2017-06-09T17:59:16.331Z,11.93
2017-06-09T18:01:42.513Z,5.00
2017-06-09T18:04:08.748Z,6.73
2017-06-09T18:06:34.959Z,11.30
2017-06-09T18:09:01.175Z,4.67
2017-06-09T18:11:28.189Z,3.83
2017-06-09T18:13:54.468Z,7.13
2017-06-09T18:16:20.621Z,2.13
2017-06-09T18:18:47.598Z,1.20
2017-06-09T18:21:13.897Z,2.20
2017-06-09T18:23:41.026Z,3.10
2017-06-09T18:26:07.155Z,2.53
2017-06-09T18:28:33.330Z,2.97
2017-06-09T18:31:00.256Z,4.47
2017-06-09T18:33:26.429Z,3.90
2017-06-09T18:35:53.132Z,3.80
2017-06-09T18:38:19.361Z,3.43
2017-06-09T18:40:45.562Z,4.50
2017-06-09T18:43:12.003Z,4.20
2017-06-09T18:45:40.317Z,1.90
2017-06-09T18:48:06.860Z,1.93
2017-06-09T18:50:33.300Z,3.43
2017-06-09T18:53:00.300Z,6.23
2017-06-09T18:55:26.573Z,3.73
2017-06-09T18:57:52.805Z,4.43
2017-06-09T19:00:19.365Z,2.50
2017-06-09T19:02:45.544Z,2.33
2017-06-09T19:05:11.871Z,3.10
2017-06-09T19:07:38.121Z,4.03
2017-06-09T19:10:04.258Z,2.53
2017-06-09T19:12:30.948Z,2.23
2017-06-09T19:14:57.175Z,2.10
2017-06-09T19:17:23.481Z,1.50
2017-06-09T19:19:50.219Z,2.83
2017-06-09T19:22:16.531Z,2.33
2017-06-09T19:24:43.119Z,2.30
2017-06-09T19:27:09.412Z,2.50
2017-06-09T19:29:35.602Z,2.73
2017-06-09T19:32:01.805Z,2.43
2017-06-09T19:34:28.022Z,1.80
2017-06-09T19:36:54.922Z,4.17
2017-06-09T19:39:21.187Z,3.90
2017-06-09T19:41:47.334Z,2.33
2017-06-09T19:44:13.554Z,3.23
2017-06-09T19:46:39.692Z,1.37
2017-06-09T19:49:06.421Z,1.33
2017-06-09T19:51:32.822Z,1.97
2017-06-09T19:53:59.049Z,1.97
2017-06-09T19:56:25.487Z,2.47
2017-06-09T19:58:51.672Z,3.10
2017-06-09T20:01:18.176Z,1.93
2017-06-09T20:03:44.433Z,1.70
2017-06-09T20:06:10.604Z,1.87
2017-06-09T20:08:36.752Z,1.60
2017-06-09T20:11:03.137Z,1.87
2017-06-09T20:13:29.710Z,2.50
2017-06-09T20:15:55.914Z,2.47
2017-06-09T20:18:22.060Z,2.23
2017-06-09T20:20:48.289Z,1.43
2017-06-09T20:23:14.453Z,2.43
2017-06-09T20:25:40.916Z,2.40
2017-06-09T20:28:07.085Z,12.30
2017-06-09T20:30:48.555Z,2.90
2017-06-09T20:33:14.802Z,2.60
2017-06-09T20:35:41.024Z,2.70
2017-06-09T20:38:07.179Z,2.07
2017-06-09T20:40:33.321Z,3.37
2017-06-09T20:42:59.846Z,1.43
2017-06-09T20:45:25.996Z,1.80
2017-06-09T20:47:52.147Z,1.60
2017-06-09T20:50:18.342Z,1.90
2017-06-09T20:52:44.594Z,1.30
2017-06-09T20:55:11.161Z,1.50
2017-06-09T20:57:37.313Z,1.40
2017-06-09T21:00:03.471Z,2.60
2017-06-09T21:02:29.665Z,4.90
2017-06-09T21:04:55.861Z,2.37
2017-06-09T21:07:22.413Z,1.93
2017-06-09T21:09:48.599Z,2.10
2017-06-09T21:12:14.799Z,1.77
2017-06-09T21:14:41.006Z,1.60
2017-06-09T21:17:07.702Z,1.60
2017-06-09T21:19:34.289Z,4.10
2017-06-09T21:22:00.437Z,1.83
2017-06-09T21:24:27.397Z,1.80
2017-06-09T21:26:53.598Z,2.60
2017-06-09T21:29:19.840Z,1.50
2017-06-09T21:31:46.334Z,1.90
2017-06-09T21:34:12.461Z,1.90
2017-06-09T21:36:38.590Z,1.87
2017-06-09T21:39:05.057Z,2.30
2017-06-09T21:41:32.007Z,3.83
2017-06-09T21:43:58.448Z,2.97
2017-06-09T21:46:24.611Z,2.90
2017-06-09T21:48:50.825Z,2.93
2017-06-09T21:51:17.030Z,2.20
2017-06-09T21:53:43.952Z,3.13
2017-06-09T21:56:10.498Z,3.50
2017-06-09T21:58:36.609Z,2.33
2017-06-09T22:01:02.877Z,2.70
2017-06-09T22:03:29.029Z,2.80
2017-06-09T22:05:55.257Z,2.70
2017-06-09T22:08:21.718Z,2.77
2017-06-09T22:10:47.935Z,2.87
2017-06-09T22:13:14.147Z,2.70
2017-06-09T22:15:40.319Z,3.37
2017-06-09T22:18:06.520Z,3.67
2017-06-09T22:20:33.674Z,2.50
2017-06-09T22:22:59.976Z,5.83
2017-06-09T22:25:26.153Z,3.80
2017-06-09T22:27:52.370Z,12.60
2017-06-09T22:30:18.505Z,5.60
2017-06-09T22:32:44.690Z,9.10
2017-06-09T22:35:10.876Z,4.23
2017-06-09T22:37:37.013Z,3.40
2017-06-09T22:40:03.886Z,2.50
2017-06-09T22:42:30.341Z,2.83
2017-06-09T22:44:56.618Z,4.50
2017-06-09T22:47:22.802Z,3.83
2017-06-09T22:49:49.272Z,3.43
2017-06-09T22:52:15.448Z,3.30
2017-06-09T22:54:41.566Z,2.80
2017-06-09T22:57:07.786Z,2.93
2017-06-09T22:59:33.945Z,6.17
2017-06-09T23:02:00.430Z,5.57
2017-06-09T23:04:26.581Z,3.43
2017-06-09T23:06:52.885Z,3.30
2017-06-09T23:09:19.112Z,3.03
2017-06-09T23:11:45.314Z,3.50
2017-06-09T23:14:11.926Z,5.20
2017-06-09T23:16:38.123Z,2.93
2017-06-09T23:19:04.328Z,3.17
2017-06-09T23:21:40.461Z,2.80
2017-06-09T23:24:06.594Z,3.23
2017-06-09T23:26:33.513Z,3.43
2017-06-09T23:28:59.641Z,3.67
2017-06-09T23:31:32.145Z,3.30
2017-06-09T23:33:58.286Z,3.60
2017-06-09T23:36:24.432Z,4.03
2017-06-09T23:38:50.644Z,3.57
2017-06-09T23:41:31.712Z,3.20
2017-06-09T23:43:59.041Z,3.50
2017-06-09T23:46:25.264Z,3.43
2017-06-09T23:48:51.546Z,4.10
2017-06-09T23:51:17.697Z,3.53
2017-06-09T23:53:43.812Z,4.17
2017-06-09T23:56:10.400Z,3.23
2017-06-09T23:58:36.574Z,3.10
